Pagina principale
METAR-TAF:

METAR-TAF

Aeroporti :

Aigen im Ennstal, Austria

latitudine: 47-32N, longitudine: 014-08E, altezza: 638 m

METAR: mancante

Ora: 11:31 (09:31 UTC)

Previsione

Il bollettino è stato emesso 1 ora e 16 minuti fa, alle 08:15 UTC
Previsione valida dal 29 alle 09 UTC al 29 alle 18 UTC
Vento 3 kt da direzioni variabili
Visibilità 10 km o più
Poco nuvoloso ad un'altezza di 12000 ft
Nubi sparse ad un'altezza di 30000 ft
Temporaneamente
dal 29 alle 10 UTC al 29 alle 17 UTC
Vento 7 kt da nord-est
Poco nuvoloso ad un'altezza di 7000 ft
Nuvoloso ad un'altezza di 30000 ft

TAF: LOXA 290815Z 2909/2918 VRB03KT 9999 FEW120 SCT300 TEMPO 2910/2917 04007KT FEW070 BKN300

Osservazioni e previsioni meteorologiche di più di 4000 aeroporti (messaggi METAR e TAF).

Le stazioni disponibili sono rappresentate dai dischi gialli e rossi sulla carta.

Puntare il mouse per vedere il nome della stazione.

Clicca sopra per visualizzare le osservazioni e previsioni meteorologiche.

Per cambiare la mappa : fare clic sui pulsanti verdi con una croce nera per ingrandire, il pulsante verde con un trattino per diminuire, o sulla freccia verde per le mappe adiacenti.


METAR-TAF: